Taxila Weather



Taxila's Current Weather

Temprature 37.22o clear sky

clear sky

Rain: 0 %

Min Temprature37.22o
Max Temprature37.22o
Humidity24
Wind Speed1.77 m/h
Sun Rise05:14:51
Sun Set19:15:22
Current Time: 24-Jul-2021 15:38:21
Lat/Lon: 33.7476, 72.8075




Taxila's Geo Location



Taxila's Weather Forecast

Time Overall Temp Min Temp Max Temp Humidity Wind Speed Rain
24-Jul-2021 (Sat)
17:00:00 clear sky 37.220 37.220 39.680 23 1.33 m/h 0 %
20:00:00 clear sky 36.950 36.410 36.950 25 1.32 m/h 0 %
23:00:00 clear sky 35.250 34.270 35.250 30 1.85 m/h 0 %
25-Jul-2021 (Sun)
02:00:00 clear sky 32.440 32.440 32.440 39 2.74 m/h 0 %
05:00:00 scattered clouds 31.340 31.340 31.340 42 3.09 m/h 0 %
08:00:00 overcast clouds 34.740 34.740 34.740 39 3.67 m/h 0 %
11:00:00 overcast clouds 38.400 38.400 38.400 30 3.29 m/h 0 %
14:00:00 broken clouds 40.660 40.660 40.660 24 2.7 m/h 0 %
17:00:00 scattered clouds 41.080 41.080 41.080 22 1.95 m/h 0 %
20:00:00 clear sky 37.530 37.530 37.530 29 1.38 m/h 0 %
23:00:00 clear sky 35.060 35.060 35.060 37 4.96 m/h 0 %
26-Jul-2021 (Mon)
02:00:00 broken clouds 32.520 32.520 32.520 57 6.82 m/h 0 %
05:00:00 broken clouds 31.570 31.570 31.570 60 4.75 m/h 0 %
08:00:00 broken clouds 33.580 33.580 33.580 54 5.98 m/h 0 %
11:00:00 broken clouds 37.100 37.100 37.100 43 5.47 m/h 0 %
14:00:00 overcast clouds 39.800 39.800 39.800 34 3.5 m/h 0 %
17:00:00 broken clouds 39.280 39.280 39.280 35 3.82 m/h 0 %
20:00:00 broken clouds 35.970 35.970 35.970 43 4.33 m/h 0 %
23:00:00 broken clouds 32.450 32.450 32.450 60 9.34 m/h 0 %
27-Jul-2021 (Tue)
02:00:00 overcast clouds 30.390 30.390 30.390 70 6.57 m/h 0 %
05:00:00 light rain 29.420 29.420 29.420 73 4.97 m/h 21 %
08:00:00 light rain 29.410 29.410 29.410 72 4.99 m/h 13 %
11:00:00 broken clouds 33.640 33.640 33.640 55 6.37 m/h 0 %
14:00:00 scattered clouds 36.950 36.950 36.950 44 5.47 m/h 0 %
17:00:00 scattered clouds 35.380 35.380 35.380 49 7.32 m/h 0 %
20:00:00 light rain 31.680 31.680 31.680 63 9.5 m/h 39 %
23:00:00 moderate rain 27.860 27.860 27.860 79 9.06 m/h 339 %
28-Jul-2021 (Wed)
02:00:00 moderate rain 27.150 27.150 27.150 80 8.68 m/h 340 %
05:00:00 light rain 26.580 26.580 26.580 83 4.91 m/h 280 %
08:00:00 light rain 26.500 26.500 26.500 84 4.02 m/h 117 %
11:00:00 light rain 25.840 25.840 25.840 86 5.27 m/h 218 %
14:00:00 light rain 26.410 26.410 26.410 84 4.7 m/h 206 %
17:00:00 light rain 26.820 26.820 26.820 80 6.16 m/h 74 %
20:00:00 light rain 25.760 25.760 25.760 82 2.92 m/h 130 %
23:00:00 light rain 26.000 26.000 26.000 82 0.81 m/h 165 %
29-Jul-2021 (Thu)
02:00:00 moderate rain 24.350 24.350 24.350 90 1.22 m/h 405 %
05:00:00 moderate rain 24.190 24.190 24.190 92 1.68 m/h 665 %
08:00:00 moderate rain 25.530 25.530 25.530 85 2.18 m/h 374 %
11:00:00 overcast clouds 28.890 28.890 28.890 67 2.05 m/h 0 %
14:00:00 light rain 31.380 31.380 31.380 59 2.08 m/h 83 %

Famous Cities (60)